createdAt,value
2019-01-22T00:00:11.843Z,-0.86
2019-01-22T00:00:52.396Z,-0.89
2019-01-22T00:01:32.952Z,-0.83
2019-01-22T00:02:13.505Z,-0.83
2019-01-22T00:02:54.062Z,-0.86
2019-01-22T00:03:34.623Z,-0.93
2019-01-22T00:04:15.178Z,-0.96
2019-01-22T00:04:55.737Z,-0.89
2019-01-22T00:05:36.293Z,-0.9
2019-01-22T00:06:16.835Z,-0.91
2019-01-22T00:06:57.399Z,-0.93
2019-01-22T00:07:37.957Z,-0.91
2019-01-22T00:08:18.510Z,-0.96
2019-01-22T00:08:59.075Z,-0.89
2019-01-22T00:09:39.618Z,-0.89
2019-01-22T00:10:20.181Z,-0.91
2019-01-22T00:11:00.742Z,-0.97
2019-01-22T00:11:41.308Z,-0.91
2019-01-22T00:12:21.868Z,-0.91
2019-01-22T00:13:02.413Z,-0.9
2019-01-22T00:13:42.982Z,-0.9
2019-01-22T00:14:23.540Z,-0.91
2019-01-22T00:15:04.106Z,-0.89
2019-01-22T00:15:44.653Z,-0.93
2019-01-22T00:16:25.239Z,-0.89
2019-01-22T00:17:05.789Z,-0.93
2019-01-22T00:17:46.366Z,-0.93
2019-01-22T00:18:26.934Z,-0.96
2019-01-22T00:19:07.490Z,-0.93
2019-01-22T00:19:48.025Z,-0.93
2019-01-22T00:20:28.590Z,-0.91
2019-01-22T00:21:09.139Z,-0.93
2019-01-22T00:21:49.697Z,-0.97
2019-01-22T00:22:30.245Z,-1.01
2019-01-22T00:23:10.799Z,-0.96
2019-01-22T00:23:51.360Z,-0.97
2019-01-22T00:24:31.931Z,-1.01
2019-01-22T00:25:12.485Z,-0.99
2019-01-22T00:25:53.038Z,-1.01
2019-01-22T00:26:33.598Z,-0.94
2019-01-22T00:27:14.185Z,-0.96
2019-01-22T00:27:54.768Z,-0.99
2019-01-22T00:28:35.319Z,-0.97
2019-01-22T00:29:15.903Z,-0.96
2019-01-22T00:29:56.476Z,-1.05
2019-01-22T00:30:36.989Z,-1.05
2019-01-22T00:31:17.533Z,-1.08
2019-01-22T00:31:58.102Z,-1.07
2019-01-22T00:32:38.676Z,-1.08
2019-01-22T00:33:19.237Z,-1.05
2019-01-22T00:33:59.790Z,-1.07
2019-01-22T00:34:40.365Z,-0.96
2019-01-22T00:35:20.942Z,-0.99
2019-01-22T00:36:01.485Z,-1.09
2019-01-22T00:36:42.032Z,-1.01
2019-01-22T00:37:22.592Z,-1.05
2019-01-22T00:38:03.149Z,-1.11
2019-01-22T00:38:43.700Z,-1.05
2019-01-22T00:39:24.247Z,-1.09
2019-01-22T00:40:04.796Z,-1.08
2019-01-22T00:40:45.356Z,-1.02
2019-01-22T00:41:25.933Z,-1.05
2019-01-22T00:42:06.495Z,-1.07
2019-01-22T00:42:47.048Z,-1.12
2019-01-22T00:43:27.604Z,-1.08
2019-01-22T00:44:08.176Z,-1.08
2019-01-22T00:44:48.737Z,-1.05
2019-01-22T00:45:29.358Z,-1.05
2019-01-22T00:46:09.926Z,-1.09
2019-01-22T00:46:50.484Z,-1.07
2019-01-22T00:47:31.044Z,-1.08
2019-01-22T00:48:11.579Z,-1.08
2019-01-22T00:48:52.129Z,-1.05
2019-01-22T00:49:32.700Z,-1.05
2019-01-22T00:50:13.253Z,-1.07
2019-01-22T00:50:53.835Z,-1.08
2019-01-22T00:51:34.397Z,-1.08
2019-01-22T00:52:14.961Z,-1.08
2019-01-22T00:52:55.556Z,-1.09
2019-01-22T00:53:36.119Z,-1.08
2019-01-22T00:54:16.675Z,-1.08
2019-01-22T00:54:57.257Z,-1.11
2019-01-22T00:55:37.811Z,-1.05
2019-01-22T00:56:18.371Z,-1.11
2019-01-22T00:56:58.947Z,-1.11
2019-01-22T00:57:39.503Z,-1.08
2019-01-22T00:58:20.058Z,-1.02
2019-01-22T00:59:00.613Z,-1.09
2019-01-22T00:59:41.177Z,-1.17
2019-01-22T01:00:21.727Z,-1.15
2019-01-22T01:01:02.338Z,-1.19
2019-01-22T01:01:42.901Z,-1.19
2019-01-22T01:02:23.460Z,-1.19
2019-01-22T01:03:04.018Z,-1.2
2019-01-22T01:03:44.605Z,-1.15
2019-01-22T01:04:25.182Z,-1.2
2019-01-22T01:05:05.736Z,-1.19
2019-01-22T01:05:46.290Z,-1.14
2019-01-22T01:06:26.851Z,-1.14
2019-01-22T01:07:07.416Z,-1.15
2019-01-22T01:07:48.220Z,-1.15
2019-01-22T01:08:28.791Z,-1.07
2019-01-22T01:09:09.362Z,-1.19
2019-01-22T01:09:49.945Z,-1.14
2019-01-22T01:10:30.501Z,-1.2
2019-01-22T01:11:11.043Z,-1.2
2019-01-22T01:11:51.604Z,-1.2
2019-01-22T01:12:32.153Z,-1.17
2019-01-22T01:13:12.720Z,-1.2
2019-01-22T01:13:53.338Z,-1.22
2019-01-22T01:14:33.903Z,-1.19
2019-01-22T01:15:14.517Z,-1.12
2019-01-22T01:15:55.082Z,-1.15
2019-01-22T01:16:35.637Z,-1.22
2019-01-22T01:17:16.189Z,-1.15
2019-01-22T01:17:56.738Z,-1.2
2019-01-22T01:18:37.298Z,-1.17
2019-01-22T01:19:17.841Z,-1.2
2019-01-22T01:19:58.403Z,-1.29
2019-01-22T01:20:38.950Z,-1.22
2019-01-22T01:21:19.527Z,-1.17
2019-01-22T01:22:00.098Z,-1.17
2019-01-22T01:22:40.669Z,-1.19
2019-01-22T01:23:21.251Z,-1.22
2019-01-22T01:24:01.798Z,-1.14
2019-01-22T01:24:42.346Z,-1.2
2019-01-22T01:25:22.912Z,-1.19
2019-01-22T01:26:03.452Z,-1.11
2019-01-22T01:26:44.018Z,-1.14
2019-01-22T01:27:24.573Z,-1.27
2019-01-22T01:28:05.150Z,-1.26
2019-01-22T01:28:45.705Z,-1.14
2019-01-22T01:29:26.245Z,-1.17
2019-01-22T01:30:06.838Z,-1.32
2019-01-22T01:30:47.392Z,-1.2
2019-01-22T01:31:27.938Z,-1.27
2019-01-22T01:32:08.512Z,-1.14
2019-01-22T01:32:49.083Z,-1.19
2019-01-22T01:33:29.683Z,-1.26
2019-01-22T01:34:10.276Z,-1.23
2019-01-22T01:34:50.817Z,-1.29
2019-01-22T01:35:31.377Z,-1.23
2019-01-22T01:36:11.948Z,-1.23
2019-01-22T01:36:52.535Z,-1.29
2019-01-22T01:37:33.087Z,-1.26
2019-01-22T01:38:13.672Z,-1.27
2019-01-22T01:38:54.232Z,-1.23
2019-01-22T01:39:34.793Z,-1.29
2019-01-22T01:40:15.363Z,-1.32
2019-01-22T01:40:55.921Z,-1.26
2019-01-22T01:41:36.461Z,-1.19
2019-01-22T01:42:17.018Z,-1.26
2019-01-22T01:42:57.571Z,-1.29
2019-01-22T01:43:38.130Z,-1.29
2019-01-22T01:44:18.682Z,-1.26
2019-01-22T01:44:59.221Z,-1.32
2019-01-22T01:45:39.791Z,-1.25
2019-01-22T01:46:20.354Z,-1.3
2019-01-22T01:47:00.938Z,-1.25
2019-01-22T01:47:41.484Z,-1.23
2019-01-22T01:48:22.044Z,-1.2
2019-01-22T01:49:02.611Z,-1.2
2019-01-22T01:49:43.170Z,-1.14
2019-01-22T01:50:23.728Z,-1.2
2019-01-22T01:51:04.275Z,-1.22
2019-01-22T01:51:44.835Z,-1.3
2019-01-22T01:52:25.389Z,-1.25
2019-01-22T01:53:05.950Z,-1.2
2019-01-22T01:53:46.497Z,-1.19
2019-01-22T01:54:27.064Z,-1.25
2019-01-22T01:55:07.605Z,-1.29
2019-01-22T01:55:48.190Z,-1.22
2019-01-22T01:56:28.724Z,-1.19
2019-01-22T01:57:09.268Z,-1.15
2019-01-22T01:57:49.842Z,-1.19
2019-01-22T01:58:30.387Z,-1.29
2019-01-22T01:59:10.946Z,-1.29
2019-01-22T01:59:51.486Z,-1.29
2019-01-22T02:00:32.055Z,-1.19
2019-01-22T02:01:12.605Z,-1.14
2019-01-22T02:01:53.156Z,-1.17
2019-01-22T02:02:33.710Z,-1.26
2019-01-22T02:03:14.257Z,-1.14
2019-01-22T02:03:54.808Z,-1.14
2019-01-22T02:04:35.364Z,-1.27
2019-01-22T02:05:15.915Z,-1.27
2019-01-22T02:05:56.486Z,-1.29
2019-01-22T02:06:37.048Z,-1.14
2019-01-22T02:07:17.611Z,-1.23
2019-01-22T02:07:58.196Z,-1.17
2019-01-22T02:08:38.757Z,-1.3
2019-01-22T02:09:19.309Z,-1.12
2019-01-22T02:09:59.911Z,-1.2
2019-01-22T02:10:40.454Z,-1.29
2019-01-22T02:11:21.028Z,-1.32
2019-01-22T02:12:01.599Z,-1.23
2019-01-22T02:12:42.165Z,-1.23
2019-01-22T02:13:22.708Z,-1.2
2019-01-22T02:14:03.268Z,-1.29
2019-01-22T02:14:43.824Z,-1.27
2019-01-22T02:15:24.381Z,-1.29
2019-01-22T02:16:04.933Z,-1.23
2019-01-22T02:16:45.483Z,-1.25
2019-01-22T02:17:26.040Z,-1.26
2019-01-22T02:18:06.587Z,-1.27
2019-01-22T02:18:47.157Z,-1.29
2019-01-22T02:19:27.725Z,-1.23
2019-01-22T02:20:08.290Z,-1.29
2019-01-22T02:20:48.872Z,-1.29
2019-01-22T02:21:29.447Z,-1.26
2019-01-22T02:22:10.005Z,-1.25
2019-01-22T02:22:50.565Z,-1.2
2019-01-22T02:23:31.122Z,-1.25
2019-01-22T02:24:11.686Z,-1.22
2019-01-22T02:24:52.248Z,-1.32
2019-01-22T02:25:32.850Z,-1.23
2019-01-22T02:26:13.381Z,-1.22
2019-01-22T02:26:53.971Z,-1.29
2019-01-22T02:27:34.537Z,-1.37
2019-01-22T02:28:15.094Z,-1.23
2019-01-22T02:28:55.657Z,-1.27
2019-01-22T02:29:36.233Z,-1.3
2019-01-22T02:30:16.787Z,-1.26
2019-01-22T02:30:57.350Z,-1.26
2019-01-22T02:31:37.909Z,-1.23
2019-01-22T02:32:18.457Z,-1.38
2019-01-22T02:32:59.015Z,-1.27
2019-01-22T02:33:39.564Z,-1.41
2019-01-22T02:34:20.137Z,-1.4
2019-01-22T02:35:00.718Z,-1.33
2019-01-22T02:35:41.289Z,-1.35
2019-01-22T02:36:21.853Z,-1.33
2019-01-22T02:37:02.436Z,-1.38
2019-01-22T02:37:43.019Z,-1.35
2019-01-22T02:38:23.588Z,-1.35
2019-01-22T02:39:04.136Z,-1.35
2019-01-22T02:39:44.714Z,-1.38
2019-01-22T02:40:25.316Z,-1.37
2019-01-22T02:41:05.892Z,-1.41
2019-01-22T02:41:46.462Z,-1.43
2019-01-22T02:42:27.003Z,-1.56
2019-01-22T02:43:07.574Z,-1.46
2019-01-22T02:43:48.124Z,-1.51
2019-01-22T02:44:28.676Z,-1.58
2019-01-22T02:45:09.219Z,-1.54
2019-01-22T02:45:49.797Z,-1.51
2019-01-22T02:46:30.365Z,-1.59
2019-01-22T02:47:10.933Z,-1.48
2019-01-22T02:47:51.490Z,-1.48
2019-01-22T02:48:32.049Z,-1.43
2019-01-22T02:49:12.634Z,-1.41
2019-01-22T02:49:53.222Z,-1.5
2019-01-22T02:50:33.782Z,-1.41
2019-01-22T02:51:14.347Z,-1.38
2019-01-22T02:51:54.914Z,-1.46
2019-01-22T02:52:35.489Z,-1.4
2019-01-22T02:53:16.075Z,-1.44
2019-01-22T02:53:56.647Z,-1.33
2019-01-22T02:54:37.242Z,-1.41
2019-01-22T02:55:17.813Z,-1.4
2019-01-22T02:55:58.394Z,-1.32
2019-01-22T02:56:38.962Z,-1.4
2019-01-22T02:57:19.516Z,-1.35
2019-01-22T02:58:00.090Z,-1.35
2019-01-22T02:58:40.684Z,-1.46
2019-01-22T02:59:21.236Z,-1.46
2019-01-22T03:00:01.801Z,-1.46
2019-01-22T03:00:42.339Z,-1.41
2019-01-22T03:01:22.898Z,-1.46
2019-01-22T03:02:03.455Z,-1.41
2019-01-22T03:02:44.032Z,-1.46
2019-01-22T03:03:24.594Z,-1.47
2019-01-22T03:04:05.152Z,-1.47
2019-01-22T03:04:45.695Z,-1.54
2019-01-22T03:05:26.258Z,-1.54
2019-01-22T03:06:06.827Z,-1.53
2019-01-22T03:06:47.403Z,-1.53
2019-01-22T03:07:27.980Z,-1.58
2019-01-22T03:08:08.549Z,-1.56
2019-01-22T03:08:49.151Z,-1.58
2019-01-22T03:09:29.695Z,-1.54
2019-01-22T03:10:10.266Z,-1.61
2019-01-22T03:10:50.824Z,-1.56
2019-01-22T03:11:31.380Z,-1.59
2019-01-22T03:12:11.920Z,-1.62
2019-01-22T03:12:52.478Z,-1.58
2019-01-22T03:13:33.034Z,-1.61
2019-01-22T03:14:13.607Z,-1.61
2019-01-22T03:14:54.169Z,-1.54
2019-01-22T03:15:34.729Z,-1.61
2019-01-22T03:16:15.307Z,-1.64
2019-01-22T03:16:55.868Z,-1.53
2019-01-22T03:17:36.428Z,-1.61
2019-01-22T03:18:16.966Z,-1.59
2019-01-22T03:18:57.554Z,-1.58
2019-01-22T03:19:38.088Z,-1.58
2019-01-22T03:20:18.650Z,-1.59
2019-01-22T03:20:59.201Z,-1.58
2019-01-22T03:21:39.760Z,-1.61
2019-01-22T03:22:20.321Z,-1.54
2019-01-22T03:23:00.872Z,-1.59
2019-01-22T03:23:46.263Z,-1.56
2019-01-22T03:24:21.987Z,-1.56
2019-01-22T03:25:02.532Z,-1.58
2019-01-22T03:25:43.105Z,-1.54
2019-01-22T03:26:23.680Z,-1.66
2019-01-22T03:27:04.251Z,-1.59
2019-01-22T03:27:44.831Z,-1.58
2019-01-22T03:28:25.375Z,-1.58
2019-01-22T03:29:05.957Z,-1.54
2019-01-22T03:29:46.525Z,-1.59
2019-01-22T03:30:27.092Z,-1.53
2019-01-22T03:31:07.643Z,-1.56
2019-01-22T03:31:48.191Z,-1.54
2019-01-22T03:32:28.751Z,-1.54
2019-01-22T03:33:09.338Z,-1.41
2019-01-22T03:33:49.888Z,-1.4
2019-01-22T03:34:30.462Z,-1.35
2019-01-22T03:35:11.014Z,-1.41
2019-01-22T03:35:51.593Z,-1.37
2019-01-22T03:36:32.152Z,-1.38
2019-01-22T03:37:13.675Z,-1.38
2019-01-22T03:37:54.249Z,-1.4
2019-01-22T03:38:34.821Z,-1.32
2019-01-22T03:39:15.387Z,-1.38
2019-01-22T03:39:55.966Z,-1.4
2019-01-22T03:40:36.527Z,-1.37
2019-01-22T03:41:17.084Z,-1.29
2019-01-22T03:41:57.671Z,-1.32
2019-01-22T03:42:38.207Z,-1.38
2019-01-22T03:43:18.771Z,-1.35
2019-01-22T03:43:59.379Z,-1.33
2019-01-22T03:44:39.941Z,-1.38
2019-01-22T03:45:20.490Z,-1.25
2019-01-22T03:46:01.060Z,-1.26
2019-01-22T03:46:41.656Z,-1.23
2019-01-22T03:47:22.229Z,-1.27
2019-01-22T03:48:02.807Z,-1.3
2019-01-22T03:48:43.393Z,-1.27
2019-01-22T03:49:23.945Z,-1.2
2019-01-22T03:50:04.489Z,-1.27
2019-01-22T03:50:45.059Z,-1.2
2019-01-22T03:51:25.620Z,-1.38
2019-01-22T03:52:06.170Z,-1.17
2019-01-22T03:52:46.722Z,-1.32
2019-01-22T03:53:27.269Z,-1.38
2019-01-22T03:54:07.832Z,-1.33
2019-01-22T03:54:48.379Z,-1.26
2019-01-22T03:55:28.921Z,-1.33
2019-01-22T03:56:09.479Z,-1.26
2019-01-22T03:56:50.023Z,-1.22
2019-01-22T03:57:30.582Z,-1.15
2019-01-22T03:58:11.134Z,-1.33
2019-01-22T03:58:51.682Z,-1.27
2019-01-22T03:59:32.237Z,-1.25
2019-01-22T04:00:12.778Z,-1.22
2019-01-22T04:00:53.340Z,-1.19
2019-01-22T04:01:33.880Z,-1.17
2019-01-22T04:02:14.430Z,-1.22
2019-01-22T04:02:54.976Z,-1.29
2019-01-22T04:03:35.533Z,-1.29
2019-01-22T04:04:16.092Z,-1.3
2019-01-22T04:04:56.643Z,-1.19
2019-01-22T04:05:37.197Z,-1.2
2019-01-22T04:06:17.757Z,-1.27
2019-01-22T04:06:58.284Z,-1.27
2019-01-22T04:07:39.087Z,-1.37
2019-01-22T04:08:19.641Z,-1.33
2019-01-22T04:09:00.209Z,-1.27
2019-01-22T04:09:40.760Z,-1.29
2019-01-22T04:10:21.329Z,-1.29
2019-01-22T04:11:01.913Z,-1.23
2019-01-22T04:11:42.454Z,-1.27
2019-01-22T04:12:23.037Z,-1.26
2019-01-22T04:13:03.621Z,-1.25
2019-01-22T04:13:44.184Z,-1.23
2019-01-22T04:14:24.771Z,-1.29
2019-01-22T04:15:05.346Z,-1.27
2019-01-22T04:15:45.928Z,-1.3
2019-01-22T04:16:26.486Z,-1.23
2019-01-22T04:17:07.066Z,-1.26
2019-01-22T04:17:47.630Z,-1.26
2019-01-22T04:18:28.203Z,-1.26
2019-01-22T04:19:09.174Z,-1.3
2019-01-22T04:19:49.390Z,-1.27
2019-01-22T04:20:29.948Z,-1.35
2019-01-22T04:21:10.508Z,-1.37
2019-01-22T04:21:51.058Z,-1.23
2019-01-22T04:22:31.630Z,-1.26
2019-01-22T04:23:12.182Z,-1.27
2019-01-22T04:23:52.738Z,-1.26
2019-01-22T04:24:33.274Z,-1.35
2019-01-22T04:25:13.844Z,-1.23
2019-01-22T04:25:54.415Z,-1.27
2019-01-22T04:26:34.993Z,-1.29
2019-01-22T04:27:15.568Z,-1.3
2019-01-22T04:27:56.145Z,-1.4
2019-01-22T04:28:36.709Z,-1.26
2019-01-22T04:29:17.270Z,-1.35
2019-01-22T04:29:57.874Z,-1.4
2019-01-22T04:30:38.455Z,-1.43
2019-01-22T04:31:19.041Z,-1.32
2019-01-22T04:31:59.586Z,-1.35
2019-01-22T04:32:40.180Z,-1.44
2019-01-22T04:33:20.747Z,-1.38
2019-01-22T04:34:01.335Z,-1.37
2019-01-22T04:34:41.890Z,-1.41
2019-01-22T04:35:22.458Z,-1.35
2019-01-22T04:36:03.029Z,-1.38
2019-01-22T04:36:43.625Z,-1.35
2019-01-22T04:37:24.200Z,-1.32
2019-01-22T04:38:04.803Z,-1.32
2019-01-22T04:38:45.359Z,-1.3
2019-01-22T04:39:25.904Z,-1.35
2019-01-22T04:40:06.470Z,-1.22
2019-01-22T04:40:47.079Z,-1.3
2019-01-22T04:41:27.641Z,-1.23
2019-01-22T04:42:08.233Z,-1.22
2019-01-22T04:42:48.810Z,-1.25
2019-01-22T04:43:29.395Z,-1.22
2019-01-22T04:44:10.001Z,-1.29
2019-01-22T04:44:50.488Z,-1.33
2019-01-22T04:45:31.046Z,-1.23
2019-01-22T04:46:11.598Z,-1.29
2019-01-22T04:46:52.185Z,-1.27
2019-01-22T04:47:32.744Z,-1.25
2019-01-22T04:48:13.306Z,-1.32
2019-01-22T04:48:53.909Z,-1.19
2019-01-22T04:49:34.469Z,-1.32
2019-01-22T04:50:15.038Z,-1.29
2019-01-22T04:50:55.586Z,-1.29
2019-01-22T04:51:36.147Z,-1.23
2019-01-22T04:52:16.719Z,-1.29
2019-01-22T04:52:57.273Z,-1.19
2019-01-22T04:53:37.856Z,-1.23
2019-01-22T04:54:18.422Z,-1.2
2019-01-22T04:54:59.019Z,-1.17
2019-01-22T04:55:39.574Z,-1.2
2019-01-22T04:56:20.137Z,-1.2
2019-01-22T04:57:00.690Z,-1.15
2019-01-22T04:57:41.262Z,-1.14
2019-01-22T04:58:21.822Z,-1.15
2019-01-22T04:59:02.375Z,-1.14
2019-01-22T04:59:42.924Z,-1.29
2019-01-22T05:00:23.484Z,-1.22
2019-01-22T05:01:04.047Z,-1.17
2019-01-22T05:01:44.606Z,-1.27
2019-01-22T05:02:25.154Z,-1.23
2019-01-22T05:03:05.710Z,-1.19
2019-01-22T05:03:46.261Z,-1.12
2019-01-22T05:04:26.832Z,-1.2
2019-01-22T05:05:07.387Z,-1.26
2019-01-22T05:05:47.932Z,-1.27
2019-01-22T05:06:28.497Z,-1.17
2019-01-22T05:07:09.034Z,-1.25
2019-01-22T05:07:49.600Z,-1.22
2019-01-22T05:08:30.157Z,-1.27
2019-01-22T05:09:10.773Z,-1.4
2019-01-22T05:09:51.334Z,-1.32
2019-01-22T05:10:31.897Z,-1.4
2019-01-22T05:11:12.486Z,-1.33
2019-01-22T05:11:53.010Z,-1.35
2019-01-22T05:12:33.560Z,-1.35
2019-01-22T05:13:14.142Z,-1.4
2019-01-22T05:13:54.679Z,-1.38
2019-01-22T05:14:35.237Z,-1.35
2019-01-22T05:15:15.795Z,-1.32
2019-01-22T05:15:56.405Z,-1.37
2019-01-22T05:16:36.989Z,-1.33
2019-01-22T05:17:17.582Z,-1.38
2019-01-22T05:17:58.157Z,-1.37
2019-01-22T05:18:38.710Z,-1.38
2019-01-22T05:19:19.304Z,-1.38
2019-01-22T05:19:59.868Z,-1.41
2019-01-22T05:20:40.425Z,-1.35
2019-01-22T05:21:20.994Z,-1.38
2019-01-22T05:22:01.558Z,-1.27
2019-01-22T05:22:42.113Z,-1.33
2019-01-22T05:23:22.680Z,-1.29
2019-01-22T05:24:03.232Z,-1.4
2019-01-22T05:24:43.780Z,-1.33
2019-01-22T05:25:24.360Z,-1.38
2019-01-22T05:26:04.935Z,-1.48
2019-01-22T05:26:45.493Z,-1.44
2019-01-22T05:27:26.049Z,-1.47
2019-01-22T05:28:06.608Z,-1.48
2019-01-22T05:28:47.160Z,-1.43
2019-01-22T05:29:27.712Z,-1.48
2019-01-22T05:30:08.269Z,-1.5
2019-01-22T05:30:48.832Z,-1.46
2019-01-22T05:31:29.473Z,-1.48
2019-01-22T05:32:10.022Z,-1.37
2019-01-22T05:32:50.570Z,-1.46
2019-01-22T05:33:31.127Z,-1.43
2019-01-22T05:34:11.700Z,-1.33
2019-01-22T05:34:52.272Z,-1.32
2019-01-22T05:35:32.844Z,-1.35
2019-01-22T05:36:13.389Z,-1.32
2019-01-22T05:36:53.947Z,-1.32
2019-01-22T05:37:34.513Z,-1.27
2019-01-22T05:38:15.080Z,-1.26
2019-01-22T05:38:55.624Z,-1.35
2019-01-22T05:39:36.178Z,-1.23
2019-01-22T05:40:16.751Z,-1.26
2019-01-22T05:40:57.340Z,-1.32
2019-01-22T05:41:37.897Z,-1.29
2019-01-22T05:42:18.459Z,-1.27
2019-01-22T05:42:59.009Z,-1.29
2019-01-22T05:43:39.564Z,-1.3
2019-01-22T05:44:20.112Z,-1.22
2019-01-22T05:45:00.683Z,-1.25
2019-01-22T05:45:41.234Z,-1.26
2019-01-22T05:46:21.797Z,-1.32
2019-01-22T05:47:02.362Z,-1.35
2019-01-22T05:47:42.924Z,-1.32
2019-01-22T05:48:23.497Z,-1.38
2019-01-22T05:49:04.045Z,-1.4
2019-01-22T05:49:44.602Z,-1.41
2019-01-22T05:50:25.148Z,-1.44
2019-01-22T05:51:05.748Z,-1.37
2019-01-22T05:51:46.295Z,-1.35
2019-01-22T05:52:26.845Z,-1.38
2019-01-22T05:53:07.385Z,-1.35
2019-01-22T05:53:47.943Z,-1.35
2019-01-22T05:54:28.495Z,-1.35
2019-01-22T05:55:09.046Z,-1.44
2019-01-22T05:55:49.611Z,-1.46
2019-01-22T05:56:30.166Z,-1.46
2019-01-22T05:57:10.760Z,-1.47
2019-01-22T05:57:51.327Z,-1.4
2019-01-22T05:58:31.880Z,-1.5
2019-01-22T05:59:12.447Z,-1.41
2019-01-22T05:59:52.984Z,-1.46
2019-01-22T06:00:33.573Z,-1.44
2019-01-22T06:01:14.102Z,-1.5
2019-01-22T06:01:54.656Z,-1.58
2019-01-22T06:02:35.212Z,-1.46
2019-01-22T06:03:15.766Z,-1.53
2019-01-22T06:03:56.333Z,-1.43
2019-01-22T06:04:36.879Z,-1.5
2019-01-22T06:05:17.431Z,-1.47
2019-01-22T06:05:57.985Z,-1.43
2019-01-22T06:06:38.555Z,-1.43
2019-01-22T06:07:19.130Z,-1.46
2019-01-22T06:07:59.916Z,-1.43
2019-01-22T06:08:40.511Z,-1.41
2019-01-22T06:09:21.080Z,-1.38
2019-01-22T06:10:01.630Z,-1.41
2019-01-22T06:10:42.223Z,-1.4
2019-01-22T06:11:22.832Z,-1.35
2019-01-22T06:12:03.379Z,-1.38
2019-01-22T06:12:43.938Z,-1.25
2019-01-22T06:13:24.517Z,-1.25
2019-01-22T06:14:05.088Z,-1.23
2019-01-22T06:14:45.650Z,-1.25
2019-01-22T06:15:26.269Z,-1.26
2019-01-22T06:16:06.808Z,-1.25
2019-01-22T06:16:47.418Z,-1.37
2019-01-22T06:17:27.980Z,-1.22
2019-01-22T06:18:08.533Z,-1.27
2019-01-22T06:18:49.091Z,-1.27
2019-01-22T06:19:29.644Z,-1.26
2019-01-22T06:20:10.229Z,-1.32
2019-01-22T06:22:23.027Z,-1.3
2019-01-22T06:23:03.599Z,-1.4
2019-01-22T06:23:44.151Z,-1.37
2019-01-22T06:24:24.696Z,-1.26
2019-01-22T06:25:05.250Z,-1.3
2019-01-22T06:25:49.593Z,-1.35
2019-01-22T06:26:26.352Z,-1.23
2019-01-22T06:27:06.941Z,-1.26
2019-01-22T06:27:47.516Z,-1.23
2019-01-22T06:28:28.078Z,-1.35
2019-01-22T06:29:08.681Z,-1.25
2019-01-22T06:29:49.240Z,-1.23
2019-01-22T06:30:29.801Z,-1.26
2019-01-22T06:31:10.349Z,-1.27
2019-01-22T06:31:50.902Z,-1.33
2019-01-22T06:32:31.478Z,-1.32
2019-01-22T06:33:12.034Z,-1.35
2019-01-22T06:33:52.601Z,-1.3
2019-01-22T06:34:33.163Z,-1.35
2019-01-22T06:35:13.707Z,-1.29
2019-01-22T06:35:54.279Z,-1.26
2019-01-22T06:36:34.854Z,-1.23
2019-01-22T06:37:15.413Z,-1.23
2019-01-22T06:37:55.966Z,-1.27
2019-01-22T06:38:36.522Z,-1.32
2019-01-22T06:39:17.084Z,-1.17
2019-01-22T06:39:57.642Z,-1.3
2019-01-22T06:40:38.224Z,-1.3
2019-01-22T06:41:18.793Z,-1.27
2019-01-22T06:41:59.404Z,-1.26
2019-01-22T06:42:39.964Z,-1.27
2019-01-22T06:43:20.538Z,-1.37
2019-01-22T06:44:01.121Z,-1.3
2019-01-22T06:44:41.780Z,-1.35
2019-01-22T06:45:22.334Z,-1.41
2019-01-22T06:46:02.888Z,-1.38
2019-01-22T06:46:43.458Z,-1.43
2019-01-22T06:47:24.019Z,-1.37
2019-01-22T06:48:04.649Z,-1.37
2019-01-22T06:48:45.220Z,-1.41
2019-01-22T06:49:25.786Z,-1.46
2019-01-22T06:50:06.369Z,-1.41
2019-01-22T06:50:46.958Z,-1.46
2019-01-22T06:51:27.559Z,-1.43
2019-01-22T06:52:08.125Z,-1.56
2019-01-22T06:52:48.688Z,-1.54
2019-01-22T06:53:29.238Z,-1.38
2019-01-22T06:54:09.810Z,-1.48
2019-01-22T06:54:50.346Z,-1.43
2019-01-22T06:55:30.895Z,-1.43
2019-01-22T06:56:11.453Z,-1.38
2019-01-22T06:56:52.001Z,-1.41
2019-01-22T06:57:32.583Z,-1.35
2019-01-22T06:58:13.167Z,-1.41
2019-01-22T06:58:53.805Z,-1.37
2019-01-22T06:59:34.375Z,-1.46
2019-01-22T07:00:14.947Z,-1.47
2019-01-22T07:00:55.498Z,-1.48
2019-01-22T07:01:36.066Z,-1.51
2019-01-22T07:02:16.629Z,-1.32
2019-01-22T07:02:57.230Z,-1.19
2019-01-22T07:03:37.778Z,-0.71
2019-01-22T07:04:18.332Z,-0.36
2019-01-22T07:04:58.911Z,-0.03
2019-01-22T07:05:39.433Z,0.26
2019-01-22T07:06:19.989Z,0.56
2019-01-22T07:07:00.561Z,0.98
2019-01-22T07:07:41.688Z,1.23
2019-01-22T07:08:22.311Z,1.37
2019-01-22T07:09:02.857Z,1.34
2019-01-22T07:09:43.420Z,1.24
2019-01-22T07:10:23.977Z,1.17
2019-01-22T07:11:04.539Z,0.98
2019-01-22T07:11:45.080Z,0.88
2019-01-22T07:12:26.404Z,0.66
2019-01-22T07:13:06.959Z,0.59
2019-01-22T07:13:47.530Z,0.37
2019-01-22T07:14:28.114Z,0.23
2019-01-22T07:15:08.693Z,0.11
2019-01-22T07:15:49.231Z,-0.02
2019-01-22T07:16:29.805Z,-0.07
2019-01-22T07:17:10.395Z,-0.2
2019-01-22T07:17:50.961Z,-0.21
2019-01-22T07:18:31.508Z,-0.35
2019-01-22T07:19:12.067Z,-0.28
2019-01-22T07:19:52.612Z,-0.36
2019-01-22T07:20:33.253Z,-0.41
2019-01-22T07:21:13.826Z,-0.46
2019-01-22T07:21:54.387Z,-0.53
2019-01-22T07:22:34.977Z,-0.54
2019-01-22T07:23:15.591Z,-0.61
2019-01-22T07:23:56.255Z,-0.64
2019-01-22T07:24:36.859Z,-0.62
2019-01-22T07:25:17.367Z,-0.67
2019-01-22T07:25:57.917Z,-0.64
2019-01-22T07:26:38.458Z,-0.71
2019-01-22T07:27:19.070Z,-0.85
2019-01-22T07:27:59.589Z,-0.78
2019-01-22T07:28:40.204Z,-0.78
2019-01-22T07:29:20.759Z,-0.83
2019-01-22T07:30:01.331Z,-0.83
2019-01-22T07:30:41.907Z,-0.89
2019-01-22T07:31:22.485Z,-0.89
2019-01-22T07:32:03.046Z,-0.9
2019-01-22T07:32:43.632Z,-0.97
2019-01-22T07:33:24.203Z,-0.99
2019-01-22T07:34:04.758Z,-0.94
2019-01-22T07:34:45.332Z,-0.99
2019-01-22T07:35:25.912Z,-1.02
2019-01-22T07:36:06.484Z,-0.96
2019-01-22T07:36:47.045Z,-0.97
2019-01-22T07:37:27.595Z,-1.07
2019-01-22T07:38:08.135Z,-1.05
2019-01-22T07:38:48.805Z,-1.08
2019-01-22T07:39:29.362Z,-1.12
2019-01-22T07:40:09.999Z,-1.14
2019-01-22T07:40:50.554Z,-1.15
2019-01-22T07:41:31.155Z,-1.17
2019-01-22T07:42:11.687Z,-1.19
2019-01-22T07:42:52.249Z,-1.19
2019-01-22T07:43:32.820Z,-1.17
2019-01-22T07:44:13.391Z,-1.02
2019-01-22T07:44:53.939Z,-1.09
2019-01-22T07:45:34.581Z,-1.11
2019-01-22T07:46:15.141Z,-1.08
2019-01-22T07:46:55.697Z,-1.08
2019-01-22T07:47:36.243Z,-1.08
2019-01-22T07:48:16.799Z,-1.07
2019-01-22T07:48:57.354Z,-1.08
2019-01-22T07:49:37.907Z,-1.08
2019-01-22T07:50:18.475Z,-1.14
2019-01-22T07:50:59.039Z,-1.09
2019-01-22T07:51:39.586Z,-1.09
2019-01-22T07:52:20.145Z,-1.08
2019-01-22T07:53:00.701Z,-1.04
2019-01-22T07:53:41.242Z,-1.08
2019-01-22T07:54:21.815Z,-1.09
2019-01-22T07:55:02.365Z,-1.09
2019-01-22T07:55:42.919Z,-1.02
2019-01-22T07:56:23.464Z,-1.05
2019-01-22T07:57:04.024Z,-0.99
2019-01-22T07:57:44.609Z,-0.91
2019-01-22T07:58:25.165Z,-1.01
2019-01-22T07:59:05.723Z,-0.96
2019-01-22T07:59:46.361Z,-0.99
2019-01-22T08:00:26.917Z,-0.93
2019-01-22T08:01:07.449Z,-0.96
2019-01-22T08:01:48.012Z,-0.85
2019-01-22T08:02:28.564Z,-0.89
2019-01-22T08:03:09.115Z,-0.89
2019-01-22T08:03:49.669Z,-0.86
2019-01-22T08:04:30.325Z,-0.91
2019-01-22T08:05:10.845Z,-0.94
2019-01-22T08:05:51.445Z,-0.97
2019-01-22T08:06:31.994Z,-0.93
2019-01-22T08:07:12.698Z,-0.91
2019-01-22T08:07:53.262Z,-0.96
2019-01-22T08:08:33.828Z,-1.07
2019-01-22T08:09:14.407Z,-0.93
2019-01-22T08:09:54.934Z,-1.09
2019-01-22T08:10:35.499Z,-1.08
2019-01-22T08:11:16.046Z,-1.09
2019-01-22T08:11:56.600Z,-1.09
2019-01-22T08:12:37.193Z,-1.05
2019-01-22T08:13:17.764Z,-1.09
2019-01-22T08:13:58.351Z,-1.08
2019-01-22T08:14:38.938Z,-1.11
2019-01-22T08:15:19.505Z,-1.09
2019-01-22T08:16:00.131Z,-1.12
2019-01-22T08:16:40.719Z,-1.12
2019-01-22T08:17:21.265Z,-1.07
2019-01-22T08:18:02.192Z,-1.04
2019-01-22T08:18:42.840Z,-1.08
2019-01-22T08:19:23.463Z,-1.07
2019-01-22T08:20:04.119Z,-1.09
2019-01-22T08:20:44.791Z,-1.07
2019-01-22T08:21:25.362Z,-1.07
2019-01-22T08:22:05.952Z,-1.04
2019-01-22T08:22:46.716Z,-1.04
2019-01-22T08:23:27.338Z,-1.07
2019-01-22T08:24:07.994Z,-0.96
2019-01-22T08:24:48.699Z,-0.97
2019-01-22T08:25:29.537Z,-0.97
2019-01-22T08:26:10.131Z,-0.99
2019-01-22T08:26:50.708Z,-0.91
2019-01-22T08:27:31.434Z,-0.9
2019-01-22T08:28:11.992Z,-0.93
2019-01-22T08:28:52.975Z,-0.89
2019-01-22T08:29:33.714Z,-0.86
2019-01-22T08:30:14.434Z,-0.83
2019-01-22T08:30:55.014Z,-0.82
2019-01-22T08:31:35.749Z,-0.8
2019-01-22T08:32:16.322Z,-0.78
2019-01-22T08:32:56.904Z,-0.82
2019-01-22T08:33:37.439Z,-0.8
2019-01-22T08:34:18.009Z,-0.78
2019-01-22T08:34:58.603Z,-0.74
2019-01-22T08:35:39.191Z,-0.77
2019-01-22T08:36:19.765Z,-0.78
2019-01-22T08:37:00.342Z,-0.78
2019-01-22T08:37:40.909Z,-0.75
2019-01-22T08:38:21.513Z,-0.72
2019-01-22T08:39:02.114Z,-0.72
2019-01-22T08:39:42.723Z,-0.74
2019-01-22T08:40:23.272Z,-0.75
2019-01-22T08:41:03.870Z,-0.74
2019-01-22T08:41:44.422Z,-0.74
2019-01-22T08:42:24.981Z,-0.7
2019-01-22T08:43:05.575Z,-0.77
2019-01-22T08:43:46.130Z,-0.78
2019-01-22T08:44:28.036Z,-0.71
2019-01-22T08:45:07.306Z,-0.82
2019-01-22T08:48:23.658Z,-0.75